Latest Weather Observations for Cape Grim

IDT60801

Issued at 11:05 pm EST Thursday 31 July 2014 (issued every 30 minutes, with the page automatically refreshed every 10 minutes)

About weather observations | Map of weather stations | Latest weather observations for TAS | Other Formats
Station Details ID: 091331 Name: CAPE GRIM Lat: -40.68 Lon: 144.69 Height: 86.0 m
Data from the previous 72 hours. | See also: Recent months for locations in Tasmania
Date/Time
EST
Temp
°C
App
Temp
°C
Dew
Point
Rel
Hum
%
Delta-T
°C
Wind Press
QNH
hPa
Press
MSL
hPa
Rain
since 9 am
mm
Dir
 
Spd
km/h
Gust
km/h
Spd
kts
Gust
kts
31/11:00pm 8.3 - - - - W 56 85 30 46 992.3 992.4 10.4
31/10:30pm 7.5 - - - - W 52 72 28 39 992.3 - 10.4
31/10:00pm 8.3 - - - - W 59 85 32 46 991.4 991.5 10.4
31/09:30pm 8.1 - - - - W 54 78 29 42 991.6 - 10.4
31/09:00pm 7.9 - - - - W 54 76 29 41 991.0 991.1 10.4
31/08:30pm 8.1 - - - - W 61 93 33 50 990.4 - 9.4
31/08:00pm 9.3 - - - - W 61 95 33 51 989.9 990.0 9.4
31/07:57pm 9.0 - - - - W 65 95 35 51 989.7 - 9.4
31/07:31pm 8.6 - - - - W 57 76 31 41 989.9 - 9.4
31/07:30pm 8.3 - - - - W 59 76 32 41 989.8 - 9.4
31/07:23pm 8.3 - - - - W 57 76 31 41 989.5 - 9.4
31/07:21pm 8.0 - - - - W 57 74 31 40 989.4 - 9.4
31/07:00pm 9.1 - - - - W 76 100 41 54 989.0 989.1 9.4
31/06:30pm 7.5 - - - - W 74 98 40 53 989.0 - 9.4
31/06:09pm 8.0 - - - - W 61 89 33 48 988.7 - 9.4
31/06:04pm 8.0 - - - - W 61 72 33 39 988.7 - 9.4
31/06:00pm 7.6 - - - - W 80 107 43 58 988.7 988.8 9.4
31/05:54pm 8.5 - - - - W 87 107 47 58 988.5 - 9.4
31/05:52pm 9.0 - - - - W 87 104 47 56 988.2 - 9.4
31/05:30pm 8.3 - - - - W 65 100 35 54 988.2 - 9.4
31/05:00pm 9.1 - - - - W 69 89 37 48 988.0 988.0 9.0
31/04:53pm 8.8 - - - - W 65 87 35 47 987.9 - 9.0
31/04:40pm 9.2 - - - - W 85 104 46 56 987.6 - 9.0
31/04:39pm 8.9 - - - - W 87 104 47 56 987.5 - 9.0
31/04:30pm 10.2 - - - - W 65 91 35 49 987.5 - 9.0
31/04:00pm 8.3 - - - - W 61 80 33 43 987.4 987.4 9.0
31/03:56pm 8.2 - - - - W 57 80 31 43 987.4 - 9.0
31/03:30pm 9.9 - - - - W 78 102 42 55 986.3 - 8.0
31/03:16pm 9.4 - - - - W 78 117 42 63 986.3 - 7.8
31/03:00pm 10.4 - - - - W 74 98 40 53 986.4 986.4 7.8
31/02:30pm 10.3 - - - - WNW 74 102 40 55 985.9 - 7.8
31/02:00pm 9.4 - - - - W 70 91 38 49 986.4 986.4 7.6
31/01:44pm 8.6 - - - - W 63 82 34 44 986.2 - 7.6
31/01:43pm 8.6 - - - - W 59 76 32 41 986.3 - 7.6
31/01:30pm 8.4 - - - - W 82 107 44 58 986.8 - 7.4
31/01:21pm 9.1 - - - - W 72 98 39 53 986.8 - 7.0
31/01:00pm 9.5 - - - - W 46 69 25 37 986.5 986.5 6.6
31/12:30pm 9.0 - - - - W 43 61 23 33 987.2 - 5.8
31/12:00pm 9.2 - - - - W 39 65 21 35 986.6 986.6 5.2
31/11:30am 9.3 - - - - WSW 43 74 23 40 986.9 - 4.0
31/11:14am 10.0 - - - - W 43 87 23 47 986.4 - 3.2
31/11:10am 10.2 - - - - W 41 61 22 33 986.5 - 2.4
31/11:09am 10.3 - - - - W 39 52 21 28 986.2 - 2.0
31/11:07am 10.6 - - - - W 65 95 35 51 986.2 - 0.8
31/11:00am 13.1 - - - - NNW 80 115 43 62 985.3 985.3 0.2
31/10:30am 13.7 - - - - NNW 89 117 48 63 986.0 - 0.0
31/10:00am 13.7 - - - - NNW 82 106 44 57 986.6 986.6 0.0
31/09:30am 13.5 - - - - NNW 78 98 42 53 987.6 - 0.0
31/09:00am 13.6 - - - - NNW 78 100 42 54 987.9 987.9 6.2
31/08:30am 13.9 - - - - NNW 69 98 37 53 988.6 - 6.2
31/08:00am 13.4 - - - - NNW 69 89 37 48 989.4 989.5 6.2
31/07:30am 13.3 - - - - NW 69 96 37 52 990.0 - 6.2
31/07:00am 13.8 - - - - NW 65 89 35 48 990.5 990.6 6.2
31/06:30am 13.5 - - - - NW 65 91 35 49 991.2 - 6.2
31/06:00am 13.6 - - - - NW 70 91 38 49 991.7 991.8 6.2
31/05:30am 13.5 - - - - NW 72 93 39 50 992.0 - 6.2
31/05:00am 13.6 - - - - NW 69 93 37 50 992.4 992.5 6.0
31/04:30am 13.5 - - - - NW 69 91 37 49 993.1 - 6.0
31/04:00am 13.5 - - - - NW 57 83 31 45 993.9 993.9 6.0
31/03:30am 13.6 - - - - NW 63 89 34 48 994.3 - 6.0
31/03:00am 13.5 - - - - NW 76 96 41 52 994.7 994.7 6.0
31/02:51am 13.5 - - - - NW 78 96 42 52 995.0 - 6.0
31/02:48am 13.4 - - - - NW 82 96 44 52 995.0 - 6.0
31/02:30am 13.7 - - - - NW 61 83 33 45 995.1 - 6.0
31/02:00am 13.3 - - - - WNW 67 89 36 48 995.4 995.4 6.0
31/01:46am 12.2 - - - - W 59 82 32 44 995.5 - 5.6
31/01:30am 12.2 - - - - WNW 63 78 34 42 995.9 - 4.8
31/01:24am 12.5 - - - - WNW 65 74 35 40 996.0 - 4.6
31/01:00am 12.7 - - - - WNW 83 102 45 55 995.9 995.9 3.6
31/12:30am 12.3 - - - - WNW 72 91 39 49 996.3 - 3.4
31/12:08am 12.6 - - - - WNW 78 96 42 52 997.0 - 2.4
31/12:07am 13.1 - - - - WNW 80 96 43 52 996.9 - 2.4
31/12:00am 13.2 - - - - WNW 59 82 32 44 997.1 997.1 2.2
 
Date/Time
EST
Temp
°C
App
Temp
°C
Dew
Point
Rel
Hum
%
Delta-T
°C
Wind Press
QNH
hPa
Press
MSL
hPa
Rain
since 9 am
mm
Dir
 
Spd
km/h
Gust
km/h
Spd
kts
Gust
kts
30/11:39pm 13.1 - - - - NW 63 83 34 45 997.6 - 2.0
30/11:30pm 12.9 - - - - NW 63 80 34 43 997.8 - 2.0
30/11:00pm 13.0 - - - - NW 61 80 33 43 998.1 998.2 2.0
30/10:30pm 13.6 - - - - NW 61 83 33 45 998.5 - 2.0
30/10:00pm 13.8 - - - - WNW 59 85 32 46 998.6 998.7 2.0
30/09:30pm 13.8 - - - - WNW 63 83 34 45 998.9 - 2.0
30/09:00pm 13.7 - - - - WNW 61 91 33 49 999.3 999.4 2.0
30/08:30pm 13.5 - - - - WNW 69 89 37 48 999.3 - 2.0
30/08:00pm 14.1 - - - - WNW 67 89 36 48 999.5 999.6 2.0
30/07:34pm 13.8 - - - - WNW 63 82 34 44 999.6 - 2.0
30/07:30pm 13.8 - - - - WNW 65 82 35 44 999.5 - 2.0
30/07:04pm 13.9 - - - - WNW 70 89 38 48 999.5 - 2.0
30/07:00pm 14.1 - - - - WNW 72 89 39 48 999.6 999.7 2.0
30/06:30pm 13.5 - - - - WNW 67 85 36 46 999.7 - 2.0
30/06:00pm 12.5 - - - - WNW 69 106 37 57 999.9 1000.0 1.8
30/05:57pm 12.5 - - - - WNW 63 96 34 52 999.9 - 1.6
30/05:30pm 13.9 - - - - WNW 57 78 31 42 1000.2 - 0.8
30/05:03pm 14.1 - - - - WNW 59 78 32 42 1000.3 - 0.8
30/05:00pm 14.0 - - - - WNW 61 78 33 42 1000.2 1000.3 0.8
30/04:39pm 14.0 - - - - WNW 65 83 35 45 1000.2 - 0.8
30/04:30pm 14.0 - - - - WNW 63 80 34 43 1000.4 - 0.8
30/04:00pm 14.1 - - - - W 69 91 37 49 1000.4 1000.5 0.8
30/03:42pm 13.9 - - - - W 61 80 33 43 1000.4 - 0.8
30/03:30pm 13.8 - - - - W 57 74 31 40 1000.6 - 0.8
30/03:04pm 14.2 - - - - WNW 59 83 32 45 1000.7 - 0.8
30/03:00pm 14.2 - - - - WNW 57 72 31 39 1000.7 1000.8 0.8
30/02:31pm 14.3 - - - - WNW 63 82 34 44 1001.0 - 0.8
30/02:30pm 14.4 - - - - WNW 65 82 35 44 1000.9 - 0.8
30/02:00pm 14.4 - - - - W 56 76 30 41 1001.0 1001.1 0.8
30/01:43pm 14.6 - - - - WNW 61 80 33 43 1001.1 - 0.8
30/01:30pm 14.2 - - - - WNW 63 78 34 42 1001.3 - 0.8
30/01:07pm 13.9 - - - - WNW 63 82 34 44 1001.5 - 0.8
30/01:00pm 14.0 - - - - WNW 63 80 34 43 1001.5 1001.6 0.8
30/12:49pm 13.4 - - - - WNW 63 82 34 44 1001.6 - 0.8
30/12:30pm 13.2 - - - - WNW 61 76 33 41 1001.9 - 0.4
30/12:00pm 13.9 - - - - WNW 61 80 33 43 1002.5 1002.6 0.4
30/11:37am 13.6 - - - - WNW 54 76 29 41 1002.9 - 0.4
30/11:30am 13.8 - - - - WNW 57 69 31 37 1003.1 - 0.4
30/11:00am 13.3 - - - - WNW 63 82 34 44 1003.4 1003.5 0.4
30/10:30am 13.5 - - - - WNW 57 78 31 42 1003.6 - 0.0
30/10:00am 13.4 - - - - WNW 59 78 32 42 1003.6 1003.7 0.0
30/09:45am 13.5 - - - - WNW 56 74 30 40 1003.5 - 0.0
30/09:30am 13.5 - - - - WNW 61 76 33 41 1003.4 - 0.0
30/09:00am 13.2 - - - - WNW 57 78 31 42 1003.3 1003.4 1.2
30/08:45am 13.2 - - - - WNW 61 80 33 43 1003.2 - 1.2
30/08:30am 13.2 - - - - WNW 61 74 33 40 1003.3 - 1.2
30/08:00am 12.8 - - - - W 56 80 30 43 1003.1 1003.2 1.2
30/07:30am 12.6 - - - - WNW 54 72 29 39 1003.0 - 1.2
30/07:04am 12.3 - - - - WNW 52 72 28 39 1003.3 - 1.2
30/07:00am 12.4 - - - - WNW 54 67 29 36 1003.3 1003.4 1.2
30/06:40am 12.3 - - - - WNW 50 69 27 37 1003.1 - 1.2
30/06:30am 12.4 - - - - WNW 56 69 30 37 1003.0 - 1.2
30/06:00am 12.8 - - - - W 56 69 30 37 1002.7 1002.8 1.2
30/05:37am 13.0 - - - - W 54 72 29 39 1002.9 - 1.2
30/05:30am 12.8 - - - - W 56 70 30 38 1002.9 - 1.2
30/05:05am 12.6 - - - - W 54 72 29 39 1002.7 - 1.2
30/05:00am 12.8 - - - - W 54 69 29 37 1002.8 1002.9 1.2
30/04:30am 12.6 - - - - W 52 70 28 38 1002.7 - 1.2
30/04:00am 12.3 - - - - W 50 74 27 40 1002.9 1003.0 1.2
30/03:30am 12.3 - - - - W 54 80 29 43 1003.0 - 1.2
30/03:00am 12.4 - - - - W 54 83 29 45 1002.9 1003.0 1.2
30/02:30am 12.5 - - - - W 50 76 27 41 1002.9 - 1.2
30/02:00am 12.6 - - - - W 52 74 28 40 1002.4 1002.5 1.2
30/01:30am 12.7 - - - - W 54 80 29 43 1002.1 - 1.2
30/01:00am 12.6 - - - - W 54 80 29 43 1001.7 1001.8 1.2
30/12:30am 12.7 - - - - W 57 82 31 44 1001.2 - 1.2
30/12:00am 12.9 - - - - W 59 85 32 46 1000.8 1000.9 1.2
 
Date/Time
EST
Temp
°C
App
Temp
°C
Dew
Point
Rel
Hum
%
Delta-T
°C
Wind Press
QNH
hPa
Press
MSL
hPa
Rain
since 9 am
mm
Dir
 
Spd
km/h
Gust
km/h
Spd
kts
Gust
kts
29/11:30pm 13.1 - - - - W 61 93 33 50 1000.4 - 1.2
29/11:00pm 13.3 - - - - W 61 83 33 45 1000.4 1000.5 1.2
29/10:30pm 13.3 - - - - W 57 80 31 43 999.8 - 1.2
29/10:00pm 13.2 - - - - W 61 83 33 45 999.7 999.8 1.2
29/09:41pm 13.3 - - - - W 72 95 39 51 999.1 - 1.2
29/09:38pm 13.3 - - - - W 96 117 52 63 999.0 - 1.2
29/09:30pm 13.4 - - - - W 72 106 39 57 999.3 - 1.2
29/09:16pm 13.3 - - - - W 78 96 42 52 999.2 - 1.2
29/09:13pm 13.2 - - - - W 83 96 45 52 999.1 - 1.2
29/09:00pm 13.4 - - - - W 63 93 34 50 999.1 999.2 1.2
29/08:30pm 13.3 - - - - W 67 93 36 50 998.8 - 1.2
29/08:00pm 13.1 - - - - W 70 93 38 50 998.3 998.4 1.2
29/07:30pm 13.5 - - - - W 83 111 45 60 997.6 - 1.2
29/07:19pm 13.7 - - - - W 87 106 47 57 997.5 - 1.2
29/07:00pm 13.6 - - - - W 67 98 36 53 997.2 997.2 1.2
29/06:54pm 13.5 - - - - W 63 82 34 44 997.4 - 1.2
29/06:30pm 13.7 - - - - W 83 106 45 57 996.7 - 1.2
29/06:00pm 13.7 - - - - W 76 107 41 58 996.1 996.1 1.2
29/05:30pm 13.9 - - - - W 80 102 43 55 995.8 - 1.2
29/05:00pm 13.8 - - - - W 80 106 43 57 995.3 995.3 1.2
29/04:30pm 13.7 - - - - WNW 85 107 46 58 994.8 - 1.2
29/04:10pm 13.8 - - - - WNW 76 113 41 61 994.5 - 1.2
29/04:01pm 13.4 - - - - WNW 74 93 40 50 994.4 - 1.2
29/04:00pm 13.4 - - - - WNW 76 93 41 50 994.4 994.4 1.2
29/03:30pm 14.0 - - - - WNW 69 93 37 50 995.0 - 1.2
29/03:24pm 14.0 - - - - WNW 67 85 36 46 995.1 - 1.2
29/03:22pm 14.0 - - - - WNW 63 76 34 41 995.2 - 1.2
29/03:00pm 14.1 - - - - W 82 102 44 55 994.8 994.8 1.2
29/02:30pm 14.2 - - - - WNW 74 98 40 53 994.5 - 1.2
29/02:00pm 14.0 - - - - WNW 69 91 37 49 994.9 994.9 1.2
29/01:42pm 13.4 - - - - WNW 63 91 34 49 995.3 - 1.2
29/01:30pm 13.2 - - - - WNW 65 82 35 44 995.4 - 1.2
29/01:00pm 12.5 - - - - W 63 82 34 44 995.9 995.9 1.2
29/12:31pm 13.1 - - - - W 65 83 35 45 996.4 - 1.2
29/12:30pm 13.0 - - - - W 67 83 36 45 996.4 - 1.2
29/12:00pm 13.7 - - - - W 70 91 38 49 996.7 996.7 1.0
29/11:30am 13.9 - - - - W 63 83 34 45 997.1 - 1.0
29/11:00am 13.8 - - - - WNW 70 91 38 49 996.9 996.9 1.0
29/10:41am 13.8 - - - - WNW 69 87 37 47 996.9 - 1.0
29/10:30am 13.8 - - - - WNW 70 87 38 47 996.9 - 1.0
29/10:00am 13.4 - - - - WNW 67 87 36 47 997.0 997.0 1.0
29/09:30am 13.5 - - - - WNW 59 83 32 45 997.3 - 1.0
29/09:00am 13.8 - - - - WNW 67 93 36 50 997.4 997.4 13.6
29/08:30am 13.6 - - - - WNW 69 91 37 49 997.5 - 13.6
29/08:00am 13.9 - - - - WNW 74 95 40 51 997.5 997.5 13.6
29/07:30am 13.7 - - - - WNW 72 95 39 51 997.2 - 13.6
29/07:00am 13.4 - - - - NW 72 98 39 53 997.1 997.1 13.2
29/06:30am 13.6 - - - - NW 74 100 40 54 996.9 - 12.8
29/06:20am 13.2 - - - - NW 69 91 37 49 996.8 - 12.6
29/06:11am 13.1 - - - - WNW 50 69 27 37 997.2 - 12.2
29/06:05am 13.3 - - - - NW 72 91 39 49 997.2 - 11.8
29/06:00am 13.5 - - - - NW 74 89 40 48 997.2 997.2 11.8
29/05:30am 12.9 - - - - NW 63 91 34 49 997.3 - 11.6
29/05:23am 12.9 - - - - NNW 63 83 34 45 997.5 - 10.6
29/05:15am 12.8 - - - - NW 54 76 29 41 997.8 - 10.6
29/05:13am 12.7 - - - - NW 54 70 29 38 997.9 - 10.4
29/05:03am 12.0 - - - - NW 54 72 29 39 998.4 - 10.2
29/05:00am 12.3 - - - - NW 57 74 31 40 998.5 998.6 10.0
29/04:30am 13.1 - - - - NW 65 89 35 48 998.6 - 8.6
29/04:00am 13.0 - - - - NW 63 82 34 44 999.3 999.4 8.4
29/03:30am 12.8 - - - - NW 65 83 35 45 999.7 - 8.2
29/03:00am 12.6 - - - - NW 54 80 29 43 1000.3 1000.4 7.0
29/02:30am 12.8 - - - - NW 48 67 26 36 1000.7 - 6.8
29/02:00am 12.9 - - - - NW 52 74 28 40 1001.5 1001.6 6.8
29/01:32am 12.8 - - - - NW 46 65 25 35 1002.0 - 6.8
29/01:30am 12.8 - - - - NW 48 65 26 35 1002.0 - 6.8
29/01:11am 12.3 - - - - NNW 52 70 28 38 1002.3 - 6.8
29/01:00am 12.6 - - - - NNW 52 65 28 35 1002.3 1002.4 6.8
29/12:45am 12.6 - - - - NW 46 65 25 35 1002.9 - 6.8
29/12:41am 12.4 - - - - NW 46 65 25 35 1002.9 - 6.8
29/12:35am 12.4 - - - - NNW 46 59 25 32 1003.0 - 6.8
29/12:30am 12.5 - - - - NNW 50 65 27 35 1003.2 - 6.8
29/12:00am 12.9 - - - - NW 52 72 28 39 1003.6 1003.7 6.6
 
Date/Time
EST
Temp
°C
App
Temp
°C
Dew
Point
Rel
Hum
%
Delta-T
°C
Wind Press
QNH
hPa
Press
MSL
hPa
Rain
since 9 am
mm
Dir
 
Spd
km/h
Gust
km/h
Spd
kts
Gust
kts
28/11:31pm 12.5 - - - - NW 46 65 25 35 1004.1 - 6.6
28/11:30pm 12.6 - - - - NW 46 63 25 34 1004.1 - 6.6
28/11:23pm 12.5 - - - - NW 48 67 26 36 1004.1 - 6.6
28/11:15pm 12.3 - - - - WNW 46 67 25 36 1004.3 - 6.6
28/11:12pm 12.2 - - - - WNW 43 57 23 31 1004.3 - 6.6

Other Formats:

Comma delimited format used in spreadsheet applications
http://www.bom.gov.au/fwo/IDT60801/IDT60801.95954.axf

JavaScript Object Notation format (JSON) in row-major order
http://www.bom.gov.au/fwo/IDT60801/IDT60801.95954.json